sensor_id;sensor_type;location;lat;lon;timestamp;noise_LAeq;noise_LA_min;noise_LA_max;noise_LA01;noise_LA95
66747;Laerm;53658;50.742;10.864;2023-03-13T00:01:39;37.03;29.92;40.13;;
66747;Laerm;53658;50.742;10.864;2023-03-13T00:04:06;37.10;29.92;40.13;;
66747;Laerm;53658;50.742;10.864;2023-03-13T00:06:35;37.07;29.92;40.03;;
66747;Laerm;53658;50.742;10.864;2023-03-13T00:09:04;37.09;30.89;40.13;;
66747;Laerm;53658;50.742;10.864;2023-03-13T00:11:33;36.99;29.92;40.33;;
66747;Laerm;53658;50.742;10.864;2023-03-13T00:14:01;37.00;29.57;40.03;;
66747;Laerm;53658;50.742;10.864;2023-03-13T00:16:28;36.87;29.92;39.92;;
66747;Laerm;53658;50.742;10.864;2023-03-13T00:18:56;36.95;30.89;39.92;;
66747;Laerm;53658;50.742;10.864;2023-03-13T00:21:24;36.97;29.92;40.03;;
66747;Laerm;53658;50.742;10.864;2023-03-13T00:23:51;37.00;30.89;40.13;;
66747;Laerm;53658;50.742;10.864;2023-03-13T00:26:22;37.01;29.92;39.81;;
66747;Laerm;53658;50.742;10.864;2023-03-13T00:28:49;36.99;29.92;39.92;;
66747;Laerm;53658;50.742;10.864;2023-03-13T00:31:24;37.02;30.54;40.43;;
66747;Laerm;53658;50.742;10.864;2023-03-13T00:33:54;37.08;30.89;40.23;;
66747;Laerm;53658;50.742;10.864;2023-03-13T00:36:26;37.08;30.89;40.53;;
66747;Laerm;53658;50.742;10.864;2023-03-13T00:38:53;37.06;30.89;40.13;;
66747;Laerm;53658;50.742;10.864;2023-03-13T00:41:38;37.17;29.92;40.62;;
66747;Laerm;53658;50.742;10.864;2023-03-13T00:44:05;37.85;30.89;40.98;;
66747;Laerm;53658;50.742;10.864;2023-03-13T00:46:30;37.62;30.89;40.71;;
66747;Laerm;53658;50.742;10.864;2023-03-13T00:48:57;37.67;29.92;40.98;;
66747;Laerm;53658;50.742;10.864;2023-03-13T00:51:23;38.52;33.09;41.30;;
66747;Laerm;53658;50.742;10.864;2023-03-13T00:53:52;38.73;33.44;41.75;;
66747;Laerm;53658;50.742;10.864;2023-03-13T00:56:21;38.25;32.93;41.14;;
66747;Laerm;53658;50.742;10.864;2023-03-13T00:58:49;38.39;33.44;44.31;;
66747;Laerm;53658;50.742;10.864;2023-03-13T01:01:30;38.49;34.31;47.83;;
66747;Laerm;53658;50.742;10.864;2023-03-13T01:04:02;38.03;33.90;41.68;;
66747;Laerm;53658;50.742;10.864;2023-03-13T01:06:32;38.00;34.31;40.71;;
66747;Laerm;53658;50.742;10.864;2023-03-13T01:08:58;38.06;34.31;41.68;;
66747;Laerm;53658;50.742;10.864;2023-03-13T01:11:31;38.15;35.04;40.80;;
66747;Laerm;53658;50.742;10.864;2023-03-13T01:14:00;38.20;35.36;41.46;;
66747;Laerm;53658;50.742;10.864;2023-03-13T01:16:29;38.24;34.69;40.89;;
66747;Laerm;53658;50.742;10.864;2023-03-13T01:18:59;38.33;34.69;44.20;;
66747;Laerm;53658;50.742;10.864;2023-03-13T01:21:26;38.47;35.36;43.58;;
66747;Laerm;53658;50.742;10.864;2023-03-13T01:23:52;38.71;34.69;46.13;;
66747;Laerm;53658;50.742;10.864;2023-03-13T01:26:20;38.47;35.66;42.53;;
66747;Laerm;53658;50.742;10.864;2023-03-13T01:28:46;38.77;35.66;45.60;;
66747;Laerm;53658;50.742;10.864;2023-03-13T01:33:42;38.81;35.36;44.58;;
66747;Laerm;53658;50.742;10.864;2023-03-13T01:36:08;38.75;35.36;44.58;;
66747;Laerm;53658;50.742;10.864;2023-03-13T01:38:34;38.91;35.66;43.54;;
66747;Laerm;53658;50.742;10.864;2023-03-13T01:41:00;38.66;35.36;42.93;;
66747;Laerm;53658;50.742;10.864;2023-03-13T01:43:32;38.72;35.66;43.14;;
66747;Laerm;53658;50.742;10.864;2023-03-13T01:46:19;38.66;35.66;44.62;;
66747;Laerm;53658;50.742;10.864;2023-03-13T01:49:13;38.68;35.36;42.09;;
66747;Laerm;53658;50.742;10.864;2023-03-13T01:54:54;38.73;35.36;42.98;;
66747;Laerm;53658;50.742;10.864;2023-03-13T01:57:29;38.69;35.36;42.47;;
66747;Laerm;53658;50.742;10.864;2023-03-13T02:00:14;38.67;35.94;40.89;;
66747;Laerm;53658;50.742;10.864;2023-03-13T02:02:45;38.93;35.36;45.77;;
66747;Laerm;53658;50.742;10.864;2023-03-13T02:05:14;38.93;35.66;46.18;;
66747;Laerm;53658;50.742;10.864;2023-03-13T02:10:30;38.66;35.36;42.98;;
66747;Laerm;53658;50.742;10.864;2023-03-13T02:13:01;38.64;35.36;41.30;;
66747;Laerm;53658;50.742;10.864;2023-03-13T02:15:29;38.67;35.94;41.96;;
66747;Laerm;53658;50.742;10.864;2023-03-13T02:17:56;38.67;35.94;41.61;;
66747;Laerm;53658;50.742;10.864;2023-03-13T02:20:23;38.67;35.66;41.14;;
66747;Laerm;53658;50.742;10.864;2023-03-13T02:23:14;38.67;35.66;43.94;;
66747;Laerm;53658;50.742;10.864;2023-03-13T02:25:52;38.70;35.66;40.98;;
66747;Laerm;53658;50.742;10.864;2023-03-13T02:28:32;38.66;35.59;41.22;;
66747;Laerm;53658;50.742;10.864;2023-03-13T02:31:19;38.72;35.66;41.68;;
66747;Laerm;53658;50.742;10.864;2023-03-13T02:33:46;38.74;35.94;41.61;;
66747;Laerm;53658;50.742;10.864;2023-03-13T02:36:16;38.74;35.66;41.46;;
66747;Laerm;53658;50.742;10.864;2023-03-13T02:38:58;38.70;35.04;41.38;;
66747;Laerm;53658;50.742;10.864;2023-03-13T02:41:28;38.70;35.94;40.98;;
66747;Laerm;53658;50.742;10.864;2023-03-13T02:43:57;38.68;35.94;41.75;;
66747;Laerm;53658;50.742;10.864;2023-03-13T02:46:23;38.70;35.36;44.07;;
66747;Laerm;53658;50.742;10.864;2023-03-13T02:48:54;38.70;35.66;41.89;;
66747;Laerm;53658;50.742;10.864;2023-03-13T02:51:40;38.98;35.66;44.42;;
66747;Laerm;53658;50.742;10.864;2023-03-13T02:54:13;38.98;35.66;44.07;;
66747;Laerm;53658;50.742;10.864;2023-03-13T02:56:45;38.69;35.04;40.98;;
66747;Laerm;53658;50.742;10.864;2023-03-13T02:59:16;38.77;35.36;44.90;;
66747;Laerm;53658;50.742;10.864;2023-03-13T03:01:45;38.70;35.66;42.71;;
66747;Laerm;53658;50.742;10.864;2023-03-13T03:04:11;38.85;36.20;45.04;;
66747;Laerm;53658;50.742;10.864;2023-03-13T03:06:37;38.71;34.69;41.11;;
66747;Laerm;53658;50.742;10.864;2023-03-13T03:09:04;38.75;35.36;42.65;;
66747;Laerm;53658;50.742;10.864;2023-03-13T03:11:33;38.73;35.36;42.09;;
66747;Laerm;53658;50.742;10.864;2023-03-13T03:14:03;38.71;35.94;42.03;;
66747;Laerm;53658;50.742;10.864;2023-03-13T03:16:35;38.67;35.59;41.89;;
66747;Laerm;53658;50.742;10.864;2023-03-13T03:19:05;38.86;35.59;44.11;;
66747;Laerm;53658;50.742;10.864;2023-03-13T03:21:32;38.68;35.66;42.09;;
66747;Laerm;53658;50.742;10.864;2023-03-13T03:23:58;38.74;35.94;43.14;;
66747;Laerm;53658;50.742;10.864;2023-03-13T03:26:24;38.66;35.66;41.96;;
66747;Laerm;53658;50.742;10.864;2023-03-13T03:28:50;38.65;35.94;41.30;;
66747;Laerm;53658;50.742;10.864;2023-03-13T03:31:16;38.64;35.31;41.06;;
66747;Laerm;53658;50.742;10.864;2023-03-13T03:33:43;38.66;35.66;40.80;;
66747;Laerm;53658;50.742;10.864;2023-03-13T03:36:17;38.64;35.36;40.89;;
66747;Laerm;53658;50.742;10.864;2023-03-13T03:38:45;38.70;35.94;41.11;;
66747;Laerm;53658;50.742;10.864;2023-03-13T03:41:14;38.71;35.94;42.16;;
66747;Laerm;53658;50.742;10.864;2023-03-13T03:43:40;38.68;35.66;41.06;;
66747;Laerm;53658;50.742;10.864;2023-03-13T03:46:08;38.67;35.94;41.46;;
66747;Laerm;53658;50.742;10.864;2023-03-13T03:48:35;38.61;35.66;40.89;;
66747;Laerm;53658;50.742;10.864;2023-03-13T03:51:05;38.56;34.69;41.38;;
66747;Laerm;53658;50.742;10.864;2023-03-13T03:53:33;38.52;35.36;40.89;;
66747;Laerm;53658;50.742;10.864;2023-03-13T03:56:00;38.60;35.36;40.98;;
66747;Laerm;53658;50.742;10.864;2023-03-13T03:58:26;38.55;35.04;41.46;;
66747;Laerm;53658;50.742;10.864;2023-03-13T04:01:02;38.60;35.36;40.80;;
66747;Laerm;53658;50.742;10.864;2023-03-13T04:03:28;38.62;35.59;40.80;;
66747;Laerm;53658;50.742;10.864;2023-03-13T04:05:55;38.63;35.36;40.80;;
66747;Laerm;53658;50.742;10.864;2023-03-13T04:08:23;38.59;35.36;41.14;;
66747;Laerm;53658;50.742;10.864;2023-03-13T04:10:50;38.59;35.66;40.89;;
66747;Laerm;53658;50.742;10.864;2023-03-13T04:13:18;38.59;35.66;41.06;;
66747;Laerm;53658;50.742;10.864;2023-03-13T04:15:44;38.63;35.66;42.22;;
66747;Laerm;53658;50.742;10.864;2023-03-13T04:18:10;38.63;35.94;40.80;;
66747;Laerm;53658;50.742;10.864;2023-03-13T04:20:37;38.65;35.59;40.71;;
66747;Laerm;53658;50.742;10.864;2023-03-13T04:23:03;38.73;35.94;42.03;;
66747;Laerm;53658;50.742;10.864;2023-03-13T04:25:29;38.70;35.66;41.30;;
66747;Laerm;53658;50.742;10.864;2023-03-13T04:27:58;38.67;35.86;40.98;;
66747;Laerm;53658;50.742;10.864;2023-03-13T04:30:29;38.68;35.94;43.09;;
66747;Laerm;53658;50.742;10.864;2023-03-13T04:33:15;38.78;34.69;48.20;;
66747;Laerm;53658;50.742;10.864;2023-03-13T04:35:47;38.65;35.36;42.76;;
66747;Laerm;53658;50.742;10.864;2023-03-13T04:38:33;38.66;35.36;41.30;;
66747;Laerm;53658;50.742;10.864;2023-03-13T04:41:21;38.65;35.36;41.46;;
66747;Laerm;53658;50.742;10.864;2023-03-13T04:44:10;38.69;35.94;41.30;;
66747;Laerm;53658;50.742;10.864;2023-03-13T04:46:55;38.79;35.66;45.77;;
66747;Laerm;53658;50.742;10.864;2023-03-13T04:49:39;39.49;35.36;50.02;;
66747;Laerm;53658;50.742;10.864;2023-03-13T04:52:23;38.66;35.36;42.76;;
66747;Laerm;53658;50.742;10.864;2023-03-13T04:55:08;38.65;35.36;43.77;;
66747;Laerm;53658;50.742;10.864;2023-03-13T04:57:55;39.66;34.69;55.37;;
66747;Laerm;53658;50.742;10.864;2023-03-13T05:00:43;38.97;35.01;46.38;;
66747;Laerm;53658;50.742;10.864;2023-03-13T05:03:35;38.97;35.36;44.54;;
66747;Laerm;53658;50.742;10.864;2023-03-13T05:06:34;41.27;34.31;69.82;;
66747;Laerm;53658;50.742;10.864;2023-03-13T05:09:17;38.61;33.90;42.88;;
66747;Laerm;53658;50.742;10.864;2023-03-13T05:12:02;42.90;34.31;77.51;;
66747;Laerm;53658;50.742;10.864;2023-03-13T05:14:44;39.79;34.31;69.61;;
66747;Laerm;53658;50.742;10.864;2023-03-13T05:17:40;39.06;35.04;64.87;;
66747;Laerm;53658;50.742;10.864;2023-03-13T05:20:25;38.46;33.90;41.46;;
66747;Laerm;53658;50.742;10.864;2023-03-13T05:23:11;38.46;33.90;45.54;;
66747;Laerm;53658;50.742;10.864;2023-03-13T05:25:55;38.67;33.44;52.17;;
66747;Laerm;53658;50.742;10.864;2023-03-13T05:28:59;38.92;34.31;47.52;;
66747;Laerm;53658;50.742;10.864;2023-03-13T05:31:32;39.23;34.69;62.32;;
66747;Laerm;53658;50.742;10.864;2023-03-13T05:34:11;38.66;34.31;49.20;;
66747;Laerm;53658;50.742;10.864;2023-03-13T05:36:52;38.74;32.35;44.76;;
66747;Laerm;53658;50.742;10.864;2023-03-13T05:39:50;38.58;33.55;45.30;;
66747;Laerm;53658;50.742;10.864;2023-03-13T05:42:24;38.75;33.90;42.71;;
66747;Laerm;53658;50.742;10.864;2023-03-13T05:45:12;38.64;33.90;44.03;;
66747;Laerm;53658;50.742;10.864;2023-03-13T05:47:59;38.70;32.35;41.68;;
66747;Laerm;53658;50.742;10.864;2023-03-13T05:51:00;38.55;34.31;43.94;;
66747;Laerm;53658;50.742;10.864;2023-03-13T05:53:45;38.36;33.55;41.30;;
66747;Laerm;53658;50.742;10.864;2023-03-13T05:56:40;38.32;34.31;41.46;;
66747;Laerm;53658;50.742;10.864;2023-03-13T05:59:25;38.34;33.90;41.46;;
66747;Laerm;53658;50.742;10.864;2023-03-13T06:02:02;38.60;34.31;42.53;;
66747;Laerm;53658;50.742;10.864;2023-03-13T06:04:35;39.04;35.04;41.89;;
66747;Laerm;53658;50.742;10.864;2023-03-13T06:07:01;39.07;34.69;43.04;;
66747;Laerm;53658;50.742;10.864;2023-03-13T06:09:27;38.68;32.93;41.53;;
66747;Laerm;53658;50.742;10.864;2023-03-13T06:11:54;38.88;34.31;44.97;;
66747;Laerm;53658;50.742;10.864;2023-03-13T06:14:24;38.45;33.90;41.53;;
66747;Laerm;53658;50.742;10.864;2023-03-13T06:17:08;38.30;33.90;42.35;;
66747;Laerm;53658;50.742;10.864;2023-03-13T06:19:33;39.05;35.04;44.15;;
66747;Laerm;53658;50.742;10.864;2023-03-13T06:21:59;39.00;35.04;43.09;;
66747;Laerm;53658;50.742;10.864;2023-03-13T06:24:25;39.37;33.44;44.07;;
66747;Laerm;53658;50.742;10.864;2023-03-13T06:26:51;39.73;35.36;44.23;;
66747;Laerm;53658;50.742;10.864;2023-03-13T06:29:17;39.80;35.66;47.63;;
66747;Laerm;53658;50.742;10.864;2023-03-13T06:31:43;39.55;35.94;43.39;;
66747;Laerm;53658;50.742;10.864;2023-03-13T06:34:11;39.28;35.36;43.09;;
66747;Laerm;53658;50.742;10.864;2023-03-13T06:36:37;39.22;35.36;43.24;;
66747;Laerm;53658;50.742;10.864;2023-03-13T06:39:03;39.51;35.31;49.77;;
66747;Laerm;53658;50.742;10.864;2023-03-13T06:41:30;38.92;34.31;42.98;;
66747;Laerm;53658;50.742;10.864;2023-03-13T06:43:56;39.16;34.31;44.76;;
66747;Laerm;53658;50.742;10.864;2023-03-13T06:46:23;38.99;35.36;43.81;;
66747;Laerm;53658;50.742;10.864;2023-03-13T06:48:49;39.44;34.69;46.52;;
66747;Laerm;53658;50.742;10.864;2023-03-13T06:51:18;39.58;35.36;43.54;;
66747;Laerm;53658;50.742;10.864;2023-03-13T06:53:45;39.67;35.36;50.85;;
66747;Laerm;53658;50.742;10.864;2023-03-13T06:56:12;39.24;35.36;45.69;;
66747;Laerm;53658;50.742;10.864;2023-03-13T06:58:38;38.91;35.04;46.02;;
66747;Laerm;53658;50.742;10.864;2023-03-13T07:01:09;38.76;34.69;43.90;;
66747;Laerm;53658;50.742;10.864;2023-03-13T07:03:36;38.55;34.69;43.33;;
66747;Laerm;53658;50.742;10.864;2023-03-13T07:06:04;38.70;34.31;47.20;;
66747;Laerm;53658;50.742;10.864;2023-03-13T07:08:31;38.39;34.69;43.58;;
66747;Laerm;53658;50.742;10.864;2023-03-13T07:11:00;38.54;34.69;44.90;;
66747;Laerm;53658;50.742;10.864;2023-03-13T07:13:27;38.48;35.36;44.27;;
66747;Laerm;53658;50.742;10.864;2023-03-13T07:15:53;38.35;34.31;43.04;;
66747;Laerm;53658;50.742;10.864;2023-03-13T07:18:20;38.45;34.31;44.97;;
66747;Laerm;53658;50.742;10.864;2023-03-13T07:20:55;38.38;35.36;44.58;;
66747;Laerm;53658;50.742;10.864;2023-03-13T07:23:23;38.42;34.69;42.82;;
66747;Laerm;53658;50.742;10.864;2023-03-13T07:25:58;39.05;35.04;50.43;;
66747;Laerm;53658;50.742;10.864;2023-03-13T07:28:26;38.42;35.04;42.47;;
66747;Laerm;53658;50.742;10.864;2023-03-13T07:30:52;38.86;34.31;52.85;;
66747;Laerm;53658;50.742;10.864;2023-03-13T07:33:18;38.49;34.69;42.53;;
66747;Laerm;53658;50.742;10.864;2023-03-13T07:35:48;38.84;34.69;49.50;;
66747;Laerm;53658;50.742;10.864;2023-03-13T07:38:15;38.73;35.36;43.94;;
66747;Laerm;53658;50.742;10.864;2023-03-13T07:40:47;38.89;35.04;45.45;;
66747;Laerm;53658;50.742;10.864;2023-03-13T07:43:13;38.57;35.04;43.68;;
66747;Laerm;53658;50.742;10.864;2023-03-13T07:45:55;38.65;35.36;44.15;;
66747;Laerm;53658;50.742;10.864;2023-03-13T07:48:23;38.88;35.36;54.02;;
66747;Laerm;53658;50.742;10.864;2023-03-13T07:50:50;39.04;34.69;48.70;;
66747;Laerm;53658;50.742;10.864;2023-03-13T07:53:16;39.14;34.69;49.04;;
66747;Laerm;53658;50.742;10.864;2023-03-13T07:58:17;38.37;35.04;41.53;;
66747;Laerm;53658;50.742;10.864;2023-03-13T08:00:43;38.65;35.36;45.54;;
66747;Laerm;53658;50.742;10.864;2023-03-13T08:03:09;38.79;34.31;49.80;;
66747;Laerm;53658;50.742;10.864;2023-03-13T08:05:35;38.88;35.59;47.54;;
66747;Laerm;53658;50.742;10.864;2023-03-13T08:08:01;38.86;35.66;45.45;;
66747;Laerm;53658;50.742;10.864;2023-03-13T08:10:27;38.71;35.94;43.86;;
66747;Laerm;53658;50.742;10.864;2023-03-13T08:12:53;38.67;35.66;46.93;;
66747;Laerm;53658;50.742;10.864;2023-03-13T08:15:20;39.08;35.36;47.67;;
66747;Laerm;53658;50.742;10.864;2023-03-13T08:17:50;38.78;35.31;46.23;;
66747;Laerm;53658;50.742;10.864;2023-03-13T08:20:18;38.55;35.66;42.09;;
66747;Laerm;53658;50.742;10.864;2023-03-13T08:22:44;38.58;34.69;41.30;;
66747;Laerm;53658;50.742;10.864;2023-03-13T08:25:15;38.84;35.36;44.62;;
66747;Laerm;53658;50.742;10.864;2023-03-13T08:27:41;38.80;35.36;43.68;;
66747;Laerm;53658;50.742;10.864;2023-03-13T08:30:08;38.89;35.66;48.54;;
66747;Laerm;53658;50.742;10.864;2023-03-13T08:32:35;38.61;35.36;42.16;;
66747;Laerm;53658;50.742;10.864;2023-03-13T08:35:02;38.48;35.31;41.14;;
66747;Laerm;53658;50.742;10.864;2023-03-13T08:37:29;38.70;35.66;44.35;;
66747;Laerm;53658;50.742;10.864;2023-03-13T08:39:55;39.36;35.04;50.59;;
66747;Laerm;53658;50.742;10.864;2023-03-13T08:42:24;38.74;34.69;49.08;;
66747;Laerm;53658;50.742;10.864;2023-03-13T08:44:50;38.40;35.04;44.43;;
66747;Laerm;53658;50.742;10.864;2023-03-13T08:47:16;38.42;35.04;46.82;;
66747;Laerm;53658;50.742;10.864;2023-03-13T08:49:43;38.35;35.04;43.09;;
66747;Laerm;53658;50.742;10.864;2023-03-13T08:52:10;38.53;35.04;44.73;;
66747;Laerm;53658;50.742;10.864;2023-03-13T08:54:36;38.67;35.36;50.26;;
66747;Laerm;53658;50.742;10.864;2023-03-13T08:57:02;38.64;34.69;44.15;;
66747;Laerm;53658;50.742;10.864;2023-03-13T08:59:28;38.44;35.36;41.75;;
66747;Laerm;53658;50.742;10.864;2023-03-13T09:01:54;38.77;35.36;47.18;;
66747;Laerm;53658;50.742;10.864;2023-03-13T09:04:20;38.79;35.36;44.51;;
66747;Laerm;53658;50.742;10.864;2023-03-13T09:06:46;38.84;35.66;48.08;;
66747;Laerm;53658;50.742;10.864;2023-03-13T09:09:12;39.10;35.94;45.60;;
66747;Laerm;53658;50.742;10.864;2023-03-13T09:11:39;38.93;35.04;47.32;;
66747;Laerm;53658;50.742;10.864;2023-03-13T09:14:06;38.86;35.36;43.63;;
66747;Laerm;53658;50.742;10.864;2023-03-13T09:16:33;38.71;35.94;42.35;;
66747;Laerm;53658;50.742;10.864;2023-03-13T09:19:00;38.99;35.36;47.30;;
66747;Laerm;53658;50.742;10.864;2023-03-13T09:21:28;38.64;35.04;42.59;;
66747;Laerm;53658;50.742;10.864;2023-03-13T09:23:55;38.52;35.36;42.41;;
66747;Laerm;53658;50.742;10.864;2023-03-13T09:26:23;38.63;35.04;43.19;;
66747;Laerm;53658;50.742;10.864;2023-03-13T09:28:50;38.78;35.36;48.28;;
66747;Laerm;53658;50.742;10.864;2023-03-13T09:31:20;38.64;35.66;41.89;;
66747;Laerm;53658;50.742;10.864;2023-03-13T09:33:48;38.69;34.69;41.61;;
66747;Laerm;53658;50.742;10.864;2023-03-13T09:36:14;38.73;35.36;41.75;;
66747;Laerm;53658;50.742;10.864;2023-03-13T09:38:42;38.50;34.69;42.65;;
66747;Laerm;53658;50.742;10.864;2023-03-13T09:43:49;38.38;35.01;41.06;;
66747;Laerm;53658;50.742;10.864;2023-03-13T09:46:24;38.48;35.36;41.06;;
66747;Laerm;53658;50.742;10.864;2023-03-13T09:48:59;38.66;35.04;43.09;;
66747;Laerm;53658;50.742;10.864;2023-03-13T09:51:37;38.44;34.69;42.09;;
66747;Laerm;53658;50.742;10.864;2023-03-13T09:54:27;38.64;35.36;49.59;;
66747;Laerm;53658;50.742;10.864;2023-03-13T09:57:20;39.78;35.04;55.52;;
66747;Laerm;53658;50.742;10.864;2023-03-13T10:00:31;38.44;34.69;42.09;;
66747;Laerm;53658;50.742;10.864;2023-03-13T10:05:45;38.78;34.31;55.94;;
66747;Laerm;53658;50.742;10.864;2023-03-13T10:08:17;41.97;35.04;69.21;;
66747;Laerm;53658;50.742;10.864;2023-03-13T10:10:57;48.15;35.66;78.45;;
66747;Laerm;53658;50.742;10.864;2023-03-13T10:13:47;40.99;35.04;72.92;;
66747;Laerm;53658;50.742;10.864;2023-03-13T10:16:23;39.34;35.66;52.17;;
66747;Laerm;53658;50.742;10.864;2023-03-13T10:18:55;39.25;34.69;46.76;;
66747;Laerm;53658;50.742;10.864;2023-03-13T10:21:25;39.21;35.36;43.19;;
66747;Laerm;53658;50.742;10.864;2023-03-13T10:24:04;39.56;36.20;43.44;;
66747;Laerm;53658;50.742;10.864;2023-03-13T10:26:36;38.71;35.36;41.82;;
66747;Laerm;53658;50.742;10.864;2023-03-13T10:29:25;38.38;35.01;40.62;;
66747;Laerm;53658;50.742;10.864;2023-03-13T10:32:00;38.55;35.04;41.22;;
66747;Laerm;53658;50.742;10.864;2023-03-13T10:34:29;38.72;35.66;41.30;;
66747;Laerm;53658;50.742;10.864;2023-03-13T10:37:18;39.45;35.94;48.40;;
66747;Laerm;53658;50.742;10.864;2023-03-13T10:39:45;38.89;35.04;41.61;;
66747;Laerm;53658;50.742;10.864;2023-03-13T10:42:26;39.28;36.20;46.33;;
66747;Laerm;53658;50.742;10.864;2023-03-13T10:45:04;39.47;36.20;42.53;;
66747;Laerm;53658;50.742;10.864;2023-03-13T10:47:34;39.41;36.20;41.68;;
66747;Laerm;53658;50.742;10.864;2023-03-13T10:50:02;39.28;36.45;42.09;;
66747;Laerm;53658;50.742;10.864;2023-03-13T10:52:42;39.33;36.45;43.39;;
66747;Laerm;53658;50.742;10.864;2023-03-13T10:55:12;39.13;35.86;41.96;;
66747;Laerm;53658;50.742;10.864;2023-03-13T10:57:42;39.49;35.36;47.02;;
66747;Laerm;53658;50.742;10.864;2023-03-13T11:00:37;39.25;35.66;45.11;;
66747;Laerm;53658;50.742;10.864;2023-03-13T11:03:30;39.22;35.66;46.33;;
66747;Laerm;53658;50.742;10.864;2023-03-13T11:05:57;39.92;35.36;57.60;;
66747;Laerm;53658;50.742;10.864;2023-03-13T11:08:33;39.37;34.34;46.10;;
66747;Laerm;53658;50.742;10.864;2023-03-13T11:11:04;39.16;36.20;47.08;;
66747;Laerm;53658;50.742;10.864;2023-03-13T11:13:42;39.21;36.45;45.80;;
66747;Laerm;53658;50.742;10.864;2023-03-13T11:16:24;39.19;35.94;44.27;;
66747;Laerm;53658;50.742;10.864;2023-03-13T11:35:57;39.75;36.20;51.83;;
66747;Laerm;53658;50.742;10.864;2023-03-13T11:38:35;39.15;36.20;46.15;;
66747;Laerm;53658;50.742;10.864;2023-03-13T11:41:20;39.14;36.20;43.04;;
66747;Laerm;53658;50.742;10.864;2023-03-13T11:57:39;39.51;35.94;54.67;;
66747;Laerm;53658;50.742;10.864;2023-03-13T12:03:05;39.35;35.66;45.94;;
66747;Laerm;53658;50.742;10.864;2023-03-13T12:05:55;39.29;35.36;50.33;;
66747;Laerm;53658;50.742;10.864;2023-03-13T12:11:20;39.21;35.94;46.30;;
66747;Laerm;53658;50.742;10.864;2023-03-13T12:17:28;39.30;35.66;47.04;;
66747;Laerm;53658;50.742;10.864;2023-03-13T12:19:57;39.25;36.20;44.03;;
66747;Laerm;53658;50.742;10.864;2023-03-13T12:22:38;39.35;36.20;48.37;;
66747;Laerm;53658;50.742;10.864;2023-03-13T12:25:26;39.32;36.20;44.15;;
66747;Laerm;53658;50.742;10.864;2023-03-13T12:28:17;39.45;35.94;44.31;;
66747;Laerm;53658;50.742;10.864;2023-03-13T12:33:59;39.32;36.20;47.10;;
66747;Laerm;53658;50.742;10.864;2023-03-13T12:39:45;39.43;35.04;50.40;;
66747;Laerm;53658;50.742;10.864;2023-03-13T12:45:18;39.19;35.04;43.24;;
66747;Laerm;53658;50.742;10.864;2023-03-13T12:56:09;39.28;36.45;46.76;;
66747;Laerm;53658;50.742;10.864;2023-03-13T12:58:46;39.12;35.94;43.77;;
66747;Laerm;53658;50.742;10.864;2023-03-13T13:01:30;39.51;35.66;51.05;;
66747;Laerm;53658;50.742;10.864;2023-03-13T13:04:03;39.05;35.66;41.30;;
66747;Laerm;53658;50.742;10.864;2023-03-13T13:09:32;39.25;35.94;49.89;;
66747;Laerm;53658;50.742;10.864;2023-03-13T13:12:21;39.35;35.94;49.60;;
66747;Laerm;53658;50.742;10.864;2023-03-13T13:19:46;39.18;35.04;48.23;;
66747;Laerm;53658;50.742;10.864;2023-03-13T13:32:48;44.53;35.36;63.64;;
66747;Laerm;53658;50.742;10.864;2023-03-13T13:35:27;39.79;36.20;50.11;;
66747;Laerm;53658;50.742;10.864;2023-03-13T13:38:36;40.15;35.94;53.53;;
66747;Laerm;53658;50.742;10.864;2023-03-13T13:43:39;40.40;35.04;52.11;;
66747;Laerm;53658;50.742;10.864;2023-03-13T13:48:36;39.86;36.45;49.77;;
66747;Laerm;53658;50.742;10.864;2023-03-13T13:56:41;39.88;36.45;48.69;;
66747;Laerm;53658;50.742;10.864;2023-03-13T14:01:48;39.55;36.20;47.40;;
66747;Laerm;53658;50.742;10.864;2023-03-13T14:04:29;39.57;35.36;48.03;;
66747;Laerm;53658;50.742;10.864;2023-03-13T14:07:02;39.85;35.94;51.40;;
66747;Laerm;53658;50.742;10.864;2023-03-13T14:12:29;39.33;36.20;43.09;;
66747;Laerm;53658;50.742;10.864;2023-03-13T14:17:54;39.14;36.45;43.81;;
66747;Laerm;53658;50.742;10.864;2023-03-13T14:20:33;39.44;36.20;48.78;;
66747;Laerm;53658;50.742;10.864;2023-03-13T14:23:05;39.23;36.45;44.07;;
66747;Laerm;53658;50.742;10.864;2023-03-13T14:25:47;39.53;36.20;49.43;;
66747;Laerm;53658;50.742;10.864;2023-03-13T14:28:23;39.41;36.20;43.90;;
66747;Laerm;53658;50.742;10.864;2023-03-13T14:30:52;39.59;36.34;52.13;;
66747;Laerm;53658;50.742;10.864;2023-03-13T14:33:19;39.41;36.45;48.08;;
66747;Laerm;53658;50.742;10.864;2023-03-13T14:35:46;41.05;36.45;59.44;;
66747;Laerm;53658;50.742;10.864;2023-03-13T14:38:18;39.34;35.04;42.76;;
66747;Laerm;53658;50.742;10.864;2023-03-13T14:40:46;39.53;36.20;47.40;;
66747;Laerm;53658;50.742;10.864;2023-03-13T14:43:22;39.59;36.20;48.48;;
66747;Laerm;53658;50.742;10.864;2023-03-13T14:45:49;39.58;36.45;49.67;;
66747;Laerm;53658;50.742;10.864;2023-03-13T14:48:32;39.54;36.45;47.16;;
66747;Laerm;53658;50.742;10.864;2023-03-13T14:51:15;39.66;36.69;47.84;;
66747;Laerm;53658;50.742;10.864;2023-03-13T14:54:01;39.39;36.20;44.19;;
66747;Laerm;53658;50.742;10.864;2023-03-13T14:56:36;39.51;36.20;45.80;;
66747;Laerm;53658;50.742;10.864;2023-03-13T14:59:15;39.40;36.45;45.11;;
66747;Laerm;53658;50.742;10.864;2023-03-13T15:01:43;39.39;35.66;45.54;;
66747;Laerm;53658;50.742;10.864;2023-03-13T15:04:09;39.27;36.45;42.47;;
66747;Laerm;53658;50.742;10.864;2023-03-13T15:06:35;39.31;35.94;42.47;;
66747;Laerm;53658;50.742;10.864;2023-03-13T15:11:51;39.32;35.36;42.82;;
66747;Laerm;53658;50.742;10.864;2023-03-13T15:14:33;39.29;36.45;41.94;;
66747;Laerm;53658;50.742;10.864;2023-03-13T15:17:00;39.30;36.45;42.41;;
66747;Laerm;53658;50.742;10.864;2023-03-13T15:19:30;39.35;36.45;41.68;;
66747;Laerm;53658;50.742;10.864;2023-03-13T15:21:57;39.35;36.20;45.99;;
66747;Laerm;53658;50.742;10.864;2023-03-13T15:24:23;39.33;35.66;43.90;;
66747;Laerm;53658;50.742;10.864;2023-03-13T15:26:49;39.33;36.45;43.86;;
66747;Laerm;53658;50.742;10.864;2023-03-13T15:29:15;39.37;35.94;43.34;;
66747;Laerm;53658;50.742;10.864;2023-03-13T15:31:43;39.25;36.45;41.75;;
66747;Laerm;53658;50.742;10.864;2023-03-13T15:34:12;39.45;36.45;43.37;;
66747;Laerm;53658;50.742;10.864;2023-03-13T15:36:39;39.31;36.20;42.03;;
66747;Laerm;53658;50.742;10.864;2023-03-13T15:39:17;39.33;35.66;47.86;;
66747;Laerm;53658;50.742;10.864;2023-03-13T15:41:47;39.31;36.20;44.83;;
66747;Laerm;53658;50.742;10.864;2023-03-13T15:44:13;39.27;35.94;42.41;;
66747;Laerm;53658;50.742;10.864;2023-03-13T15:46:39;39.34;35.94;47.13;;
66747;Laerm;53658;50.742;10.864;2023-03-13T15:49:05;39.32;35.36;43.39;;
66747;Laerm;53658;50.742;10.864;2023-03-13T15:51:35;39.35;36.45;45.34;;
66747;Laerm;53658;50.742;10.864;2023-03-13T15:54:03;39.27;36.45;41.82;;
66747;Laerm;53658;50.742;10.864;2023-03-13T15:56:34;39.27;36.45;42.03;;